Time;durP1;ratioP1;P1;durP2;ratioP2;P2;SDS_P1;SDS_P2;PMS_P1;PMS_P2;Temp;Humidity;BMP_temperature;BMP_pressure;BME280_temperature;BME280_humidity;BME280_pressure;Samples;Min_cycle;Max_cycle;Signal;HPM_P1;HPM_P2
2022/11/13 00:00:13;;;;;;;6.90;5.15;;;4.60;99.90;;;;;;474495;249;28017;-66
2022/11/13 00:02:14;;;;;;;6.75;5.18;;;4.60;99.90;;;;;;474487;249;27544;-65
2022/11/13 00:04:15;;;;;;;5.65;4.80;;;4.40;99.90;;;;;;474503;249;27640;-66
2022/11/13 00:06:17;;;;;;;6.37;5.35;;;4.40;99.90;;;;;;474562;249;27600;-69
2022/11/13 00:08:18;;;;;;;5.60;4.87;;;4.40;99.90;;;;;;474438;249;27623;-65
2022/11/13 00:10:19;;;;;;;5.25;4.75;;;4.50;99.90;;;;;;474541;249;27588;-66
2022/11/13 00:12:20;;;;;;;6.32;5.28;;;4.60;99.90;;;;;;474454;249;27626;-66
2022/11/13 00:14:22;;;;;;;8.30;6.22;;;4.40;99.90;;;;;;474507;250;27691;-65
2022/11/13 00:16:23;;;;;;;5.87;5.18;;;4.40;99.90;;;;;;474531;249;27452;-68
2022/11/13 00:18:24;;;;;;;5.65;4.97;;;4.40;99.90;;;;;;474475;249;27557;-65
2022/11/13 00:20:25;;;;;;;6.07;5.37;;;4.40;99.90;;;;;;474551;249;27465;-67
2022/11/13 00:22:27;;;;;;;6.53;5.87;;;4.50;99.90;;;;;;474462;249;28017;-65
2022/11/13 00:24:28;;;;;;;7.50;5.60;;;4.40;99.90;;;;;;474494;249;28028;-65
2022/11/13 00:26:29;;;;;;;7.05;5.80;;;4.40;99.90;;;;;;474514;249;28035;-65
2022/11/13 00:28:30;;;;;;;7.53;5.57;;;4.40;99.90;;;;;;474463;249;29057;-65
2022/11/13 00:30:32;;;;;;;10.75;6.78;;;4.40;99.90;;;;;;474527;249;27580;-67
2022/11/13 00:32:33;;;;;;;8.23;6.70;;;4.30;99.90;;;;;;474441;249;27513;-66
2022/11/13 00:34:34;;;;;;;7.15;5.90;;;4.30;99.90;;;;;;474529;249;27771;-66
2022/11/13 00:36:35;;;;;;;8.40;6.80;;;4.40;99.90;;;;;;474559;249;27572;-65
2022/11/13 00:38:37;;;;;;;8.55;6.65;;;4.50;99.90;;;;;;474521;249;27513;-66
2022/11/13 00:40:38;;;;;;;9.02;6.50;;;4.30;99.90;;;;;;474569;249;27628;-66
2022/11/13 00:42:39;;;;;;;8.10;6.35;;;4.30;99.90;;;;;;474546;249;27514;-65
2022/11/13 00:44:40;;;;;;;8.80;6.78;;;4.30;99.90;;;;;;474407;249;27564;-65
2022/11/13 00:46:42;;;;;;;8.52;5.43;;;4.30;99.90;;;;;;474530;249;28074;-69
2022/11/13 00:48:43;;;;;;;7.12;5.93;;;4.40;99.90;;;;;;474518;249;27585;-65
2022/11/13 00:50:44;;;;;;;6.25;5.40;;;4.50;99.90;;;;;;474504;249;27976;-66
2022/11/13 00:52:46;;;;;;;6.93;5.50;;;4.50;99.90;;;;;;474506;249;28012;-66
2022/11/13 00:54:47;;;;;;;6.65;5.65;;;4.50;99.90;;;;;;474426;249;29115;-66
2022/11/13 00:56:48;;;;;;;5.90;5.10;;;4.40;99.90;;;;;;474516;249;28107;-66
2022/11/13 00:58:49;;;;;;;5.90;4.70;;;4.60;99.90;;;;;;474486;249;27613;-66
2022/11/13 01:00:51;;;;;;;5.65;4.60;;;4.60;99.90;;;;;;474513;249;27584;-67
2022/11/13 01:02:52;;;;;;;4.75;4.25;;;4.60;99.90;;;;;;474496;249;27623;-65
2022/11/13 01:04:53;;;;;;;4.65;4.18;;;4.50;99.90;;;;;;474452;249;27548;-66
2022/11/13 01:06:54;;;;;;;5.45;4.55;;;4.50;99.90;;;;;;474528;250;27739;-69
2022/11/13 01:08:56;;;;;;;4.35;3.95;;;4.40;99.90;;;;;;474493;249;27489;-65
2022/11/13 01:10:57;;;;;;;4.95;3.92;;;4.50;99.90;;;;;;474522;249;27564;-66
2022/11/13 01:12:58;;;;;;;4.18;3.80;;;4.50;99.90;;;;;;474491;249;27611;-65
2022/11/13 01:14:59;;;;;;;4.07;3.67;;;4.40;99.90;;;;;;474473;249;27627;-65
2022/11/13 01:17:01;;;;;;;4.53;3.58;;;4.40;99.90;;;;;;474536;249;27496;-69
2022/11/13 01:19:02;;;;;;;4.30;3.70;;;4.40;99.90;;;;;;474459;249;27971;-65
2022/11/13 01:21:03;;;;;;;3.87;3.58;;;4.40;99.90;;;;;;474523;249;28141;-66
2022/11/13 01:23:04;;;;;;;4.47;3.95;;;4.20;99.90;;;;;;474488;249;29217;-65
2022/11/13 01:25:06;;;;;;;5.40;4.10;;;4.10;99.90;;;;;;474385;249;29086;-65
2022/11/13 01:27:07;;;;;;;4.90;4.20;;;4.20;99.90;;;;;;474523;249;27577;-69
2022/11/13 01:29:08;;;;;;;6.00;4.30;;;4.10;99.90;;;;;;474496;249;27521;-65
2022/11/13 01:31:09;;;;;;;4.00;3.60;;;4.10;99.90;;;;;;474509;249;27557;-66
2022/11/13 01:33:11;;;;;;;5.28;3.70;;;4.20;99.90;;;;;;474512;249;27509;-65
2022/11/13 01:35:12;;;;;;;4.45;4.05;;;4.20;99.90;;;;;;474472;249;27528;-65
2022/11/13 01:37:13;;;;;;;3.75;3.45;;;4.10;99.90;;;;;;474450;249;27619;-70
2022/11/13 01:39:14;;;;;;;4.78;4.28;;;4.10;99.90;;;;;;474430;249;27594;-67
2022/11/13 01:41:16;;;;;;;4.53;4.12;;;3.90;99.90;;;;;;474499;249;27561;-66
2022/11/13 01:43:17;;;;;;;4.62;4.20;;;3.80;99.90;;;;;;474479;249;27536;-65
2022/11/13 01:45:18;;;;;;;4.40;4.00;;;3.90;99.90;;;;;;474462;249;27637;-65
2022/11/13 01:47:19;;;;;;;4.18;3.78;;;4.00;99.90;;;;;;474532;249;28054;-68
2022/11/13 01:49:21;;;;;;;4.30;3.90;;;4.00;99.90;;;;;;474524;249;27959;-66
2022/11/13 01:51:22;;;;;;;4.22;3.83;;;3.70;99.90;;;;;;474494;249;28001;-66
2022/11/13 01:53:23;;;;;;;3.97;3.67;;;3.90;99.90;;;;;;474526;249;27960;-66
2022/11/13 01:55:24;;;;;;;5.37;4.47;;;3.90;99.90;;;;;;474486;249;27564;-66
2022/11/13 01:57:26;;;;;;;4.85;4.35;;;3.70;99.90;;;;;;474543;249;27542;-68
2022/11/13 01:59:27;;;;;;;4.72;3.67;;;3.80;99.90;;;;;;474541;249;27536;-65
2022/11/13 02:01:28;;;;;;;4.40;4.00;;;3.80;99.90;;;;;;474518;249;27553;-66
2022/11/13 02:03:29;;;;;;;5.43;4.43;;;3.70;99.90;;;;;;474533;249;27425;-65
2022/11/13 02:05:31;;;;;;;6.75;4.20;;;3.50;99.90;;;;;;474481;250;27563;-67
2022/11/13 02:07:33;;;;;;;5.30;4.80;;;3.70;99.90;;;;;;474569;249;27481;-69
2022/11/13 02:09:34;;;;;;;4.47;4.07;;;3.90;99.90;;;;;;474545;249;27637;-66
2022/11/13 02:11:36;;;;;;;4.10;3.53;;;4.00;99.90;;;;;;474481;249;27514;-65
2022/11/13 02:13:37;;;;;;;4.03;3.37;;;4.00;99.90;;;;;;474514;249;27553;-66
2022/11/13 02:15:38;;;;;;;3.83;3.53;;;4.00;99.90;;;;;;474410;249;28033;-69
2022/11/13 02:17:39;;;;;;;3.95;3.35;;;4.10;99.90;;;;;;473475;249;28409;-65
2022/11/13 02:19:41;;;;;;;3.75;3.45;;;4.20;99.90;;;;;;473058;249;28022;-66
2022/11/13 02:21:42;;;;;;;3.92;3.53;;;4.10;99.90;;;;;;473706;249;27564;-65
2022/11/13 02:23:43;;;;;;;4.03;3.33;;;4.10;99.90;;;;;;474541;249;27569;-66
2022/11/13 02:25:45;;;;;;;4.15;3.58;;;4.10;99.90;;;;;;474517;249;27587;-69
2022/11/13 02:27:47;;;;;;;3.58;3.28;;;4.00;99.90;;;;;;474547;249;27544;-66
2022/11/13 02:29:48;;;;;;;3.92;3.53;;;4.00;99.90;;;;;;474544;249;27550;-65
2022/11/13 02:31:49;;;;;;;3.58;3.20;;;4.00;99.90;;;;;;474487;249;27584;-66
2022/11/13 02:33:50;;;;;;;4.03;3.30;;;3.90;99.90;;;;;;474556;249;28469;-68
2022/11/13 02:35:52;;;;;;;4.50;3.60;;;3.80;99.90;;;;;;474529;249;27633;-65
2022/11/13 02:37:53;;;;;;;4.12;3.65;;;3.70;99.90;;;;;;474555;249;27701;-66
2022/11/13 02:39:54;;;;;;;4.53;4.07;;;3.70;99.90;;;;;;474542;249;27635;-65
2022/11/13 02:41:55;;;;;;;3.60;3.22;;;3.70;99.90;;;;;;474469;249;27533;-65
2022/11/13 02:43:57;;;;;;;4.35;3.95;;;3.60;99.90;;;;;;474543;249;27465;-69
2022/11/13 02:45:58;;;;;;;3.78;3.47;;;3.60;99.90;;;;;;474506;249;27675;-65
2022/11/13 02:47:59;;;;;;;4.10;3.70;;;3.50;99.90;;;;;;474534;249;27551;-67
2022/11/13 02:50:00;;;;;;;4.35;3.60;;;3.50;99.90;;;;;;474545;250;28029;-66
2022/11/13 02:52:02;;;;;;;4.15;3.40;;;3.40;99.90;;;;;;474486;249;28116;-65
2022/11/13 02:54:03;;;;;;;5.10;4.10;;;3.40;99.90;;;;;;474557;249;28035;-69
2022/11/13 02:56:04;;;;;;;4.62;3.80;;;3.30;99.90;;;;;;474487;250;28054;-66
2022/11/13 02:58:05;;;;;;;4.82;4.32;;;3.30;99.90;;;;;;474540;249;27446;-67
2022/11/13 03:00:07;;;;;;;4.72;4.22;;;3.40;99.90;;;;;;474512;249;27518;-65
2022/11/13 03:02:08;;;;;;;4.50;3.55;;;3.30;99.90;;;;;;474496;249;27671;-66
2022/11/13 03:04:09;;;;;;;4.78;3.62;;;3.20;99.90;;;;;;474533;249;27456;-65
2022/11/13 03:06:10;;;;;;;5.62;3.80;;;3.30;99.90;;;;;;474485;249;27575;-66
2022/11/13 03:08:12;;;;;;;5.80;4.35;;;3.30;99.90;;;;;;474553;249;27569;-66
2022/11/13 03:10:13;;;;;;;4.00;3.60;;;3.30;99.90;;;;;;474525;249;27526;-65
2022/11/13 03:12:14;;;;;;;5.93;4.18;;;3.20;99.90;;;;;;474483;249;27664;-65
2022/11/13 03:14:15;;;;;;;5.37;3.90;;;3.20;99.90;;;;;;474503;249;27572;-65
2022/11/13 03:16:17;;;;;;;4.82;4.10;;;3.20;99.90;;;;;;474489;250;27554;-66
2022/11/13 03:18:18;;;;;;;4.50;3.70;;;3.10;99.90;;;;;;474525;249;28033;-66
2022/11/13 03:20:19;;;;;;;4.30;3.90;;;3.20;99.90;;;;;;474543;249;27953;-65
2022/11/13 03:22:20;;;;;;;4.32;3.92;;;3.00;99.90;;;;;;474464;249;28102;-65
2022/11/13 03:24:22;;;;;;;5.43;4.50;;;3.10;99.90;;;;;;474518;249;28798;-65
2022/11/13 03:26:23;;;;;;;6.50;4.53;;;3.10;99.90;;;;;;474516;249;27521;-69
2022/11/13 03:28:24;;;;;;;6.22;4.55;;;3.00;99.90;;;;;;474516;249;27979;-68
2022/11/13 03:30:25;;;;;;;7.00;5.40;;;3.00;99.90;;;;;;474529;249;27465;-66
2022/11/13 03:32:27;;;;;;;7.68;5.35;;;2.90;99.90;;;;;;474471;250;27568;-66
2022/11/13 03:34:28;;;;;;;7.00;5.30;;;2.90;99.90;;;;;;474541;249;27618;-64
2022/11/13 03:36:29;;;;;;;6.90;5.32;;;2.90;99.90;;;;;;474526;249;27612;-65
2022/11/13 03:38:31;;;;;;;7.30;5.15;;;2.80;99.90;;;;;;474466;249;27573;-68
2022/11/13 03:40:32;;;;;;;6.35;5.37;;;2.90;99.90;;;;;;474474;249;27608;-65
2022/11/13 03:42:33;;;;;;;7.25;5.25;;;3.00;99.90;;;;;;474500;249;27643;-66
2022/11/13 03:44:34;;;;;;;7.18;5.00;;;3.00;99.90;;;;;;474514;249;27668;-65
2022/11/13 03:46:35;;;;;;;8.00;4.80;;;2.90;99.90;;;;;;474548;249;27476;-65
2022/11/13 03:48:37;;;;;;;6.28;4.95;;;2.80;99.90;;;;;;474492;249;27632;-67
2022/11/13 03:50:38;;;;;;;7.20;5.53;;;2.80;99.90;;;;;;474535;249;27578;-66
2022/11/13 03:52:39;;;;;;;6.10;4.75;;;2.80;99.90;;;;;;474512;249;28020;-65
2022/11/13 03:54:40;;;;;;;6.87;5.10;;;2.80;99.90;;;;;;474516;249;27969;-65
2022/11/13 03:56:42;;;;;;;9.20;5.68;;;2.80;99.90;;;;;;474551;249;27966;-65
2022/11/13 03:58:43;;;;;;;8.77;5.55;;;2.70;99.90;;;;;;474535;249;28002;-67
2022/11/13 04:00:44;;;;;;;7.97;5.30;;;2.80;99.90;;;;;;474540;249;27626;-65
2022/11/13 04:02:45;;;;;;;9.00;5.78;;;2.70;99.90;;;;;;474503;249;27568;-66
2022/11/13 04:04:47;;;;;;;8.02;4.82;;;2.70;99.90;;;;;;474526;249;27603;-65
2022/11/13 04:06:48;;;;;;;6.70;5.22;;;2.70;99.90;;;;;;474510;249;27626;-65
2022/11/13 04:08:49;;;;;;;4.55;4.07;;;2.70;99.90;;;;;;474527;249;27576;-69
2022/11/13 04:10:51;;;;;;;8.27;5.37;;;2.70;99.90;;;;;;474542;249;27619;-65
2022/11/13 04:12:52;;;;;;;5.62;4.07;;;2.70;99.90;;;;;;474503;249;27574;-66
2022/11/13 04:14:53;;;;;;;5.85;4.90;;;2.70;99.90;;;;;;474471;250;27526;-65
2022/11/13 04:16:54;;;;;;;5.78;4.40;;;2.70;99.90;;;;;;474528;249;27428;-65
2022/11/13 04:18:56;;;;;;;4.87;4.20;;;2.70;99.90;;;;;;474493;249;27504;-68
2022/11/13 04:20:57;;;;;;;5.10;3.80;;;2.70;99.90;;;;;;474532;249;28077;-65
2022/11/13 04:22:58;;;;;;;4.45;4.05;;;2.70;99.90;;;;;;474474;249;28044;-66
2022/11/13 04:24:59;;;;;;;5.28;3.58;;;2.70;99.90;;;;;;474497;249;28059;-65
2022/11/13 04:27:01;;;;;;;4.45;3.97;;;2.70;99.90;;;;;;474530;249;27980;-68
2022/11/13 04:29:02;;;;;;;4.68;3.85;;;2.70;99.90;;;;;;474507;249;27545;-69
2022/11/13 04:31:03;;;;;;;4.40;3.87;;;2.70;99.90;;;;;;474520;250;27531;-66
2022/11/13 04:33:04;;;;;;;3.70;3.40;;;2.70;99.90;;;;;;474471;249;27583;-66
2022/11/13 04:35:06;;;;;;;4.60;4.10;;;2.70;99.90;;;;;;474522;249;27568;-65
2022/11/13 04:37:07;;;;;;;3.70;3.40;;;2.60;99.90;;;;;;474549;249;27525;-65
2022/11/13 04:39:08;;;;;;;3.15;2.85;;;2.60;99.90;;;;;;474494;249;27577;-68
2022/11/13 04:43:29;;;;;;;3.40;3.10;;;2.60;99.90;;;;;;474458;250;27561;-66
2022/11/13 04:45:30;;;;;;;4.12;3.53;;;2.60;99.90;;;;;;474518;249;27593;-65
2022/11/13 04:47:31;;;;;;;3.10;2.90;;;2.60;99.90;;;;;;474525;249;27521;-66
2022/11/13 04:49:32;;;;;;;3.62;3.00;;;2.60;99.90;;;;;;474513;249;27492;-66
2022/11/13 04:51:34;;;;;;;3.10;2.75;;;2.50;99.90;;;;;;474531;249;27539;-65
2022/11/13 04:53:35;;;;;;;3.08;2.87;;;2.60;99.90;;;;;;474483;249;27557;-65
2022/11/13 04:55:36;;;;;;;3.20;2.90;;;2.50;99.90;;;;;;474524;249;27914;-65
2022/11/13 04:57:37;;;;;;;2.95;2.70;;;2.50;99.90;;;;;;474944;249;27432;-65
2022/11/13 04:59:39;;;;;;;3.15;2.95;;;2.40;99.90;;;;;;475025;250;27480;-67
2022/11/13 05:01:40;;;;;;;3.17;2.85;;;2.50;99.90;;;;;;475090;250;27995;-65
2022/11/13 05:03:41;;;;;;;3.42;3.08;;;2.40;99.90;;;;;;475045;250;27944;-66
2022/11/13 05:05:42;;;;;;;3.45;3.00;;;2.40;99.90;;;;;;475087;250;29709;-65
2022/11/13 05:07:44;;;;;;;2.90;2.70;;;2.40;99.90;;;;;;475073;250;29020;-65
2022/11/13 05:09:45;;;;;;;3.00;2.70;;;2.40;99.90;;;;;;475076;250;27531;-67
2022/11/13 05:11:46;;;;;;;3.10;2.65;;;2.40;99.90;;;;;;475101;250;27421;-66
2022/11/13 05:13:47;;;;;;;3.37;2.90;;;2.40;99.90;;;;;;475046;250;27452;-65
2022/11/13 05:15:49;;;;;;;3.33;2.95;;;2.40;99.90;;;;;;475083;250;27404;-65
2022/11/13 05:17:50;;;;;;;2.75;2.55;;;2.30;99.90;;;;;;475090;250;27423;-66
2022/11/13 05:19:51;;;;;;;4.45;3.33;;;2.30;99.90;;;;;;475055;250;27477;-69
2022/11/13 05:21:52;;;;;;;5.43;3.60;;;2.30;99.90;;;;;;475092;250;27519;-65
2022/11/13 05:23:54;;;;;;;3.60;3.00;;;2.30;99.90;;;;;;475029;250;27470;-66
2022/11/13 05:25:55;;;;;;;3.50;3.20;;;2.30;99.90;;;;;;475022;250;27471;-65
2022/11/13 05:27:56;;;;;;;4.00;3.30;;;2.20;99.90;;;;;;475109;250;27509;-66
2022/11/13 05:29:57;;;;;;;3.30;3.05;;;2.20;99.90;;;;;;475095;250;27959;-69
2022/11/13 05:31:59;;;;;;;4.20;3.47;;;2.20;99.90;;;;;;475108;250;27962;-66
2022/11/13 05:34:00;;;;;;;5.05;2.83;;;2.30;99.90;;;;;;475075;250;27970;-69
2022/11/13 05:36:01;;;;;;;4.60;2.70;;;2.30;99.90;;;;;;475093;250;27893;-65
2022/11/13 05:38:02;;;;;;;3.28;2.97;;;2.30;99.90;;;;;;475082;250;27431;-66
2022/11/13 05:40:04;;;;;;;5.03;3.55;;;2.20;99.90;;;;;;475097;250;27471;-70
2022/11/13 05:42:05;;;;;;;3.60;3.15;;;2.20;99.90;;;;;;475126;250;27540;-66
2022/11/13 05:44:06;;;;;;;4.40;3.30;;;2.20;99.90;;;;;;475089;250;27460;-68
2022/11/13 05:46:07;;;;;;;4.70;3.45;;;2.20;99.90;;;;;;475074;250;27404;-65
2022/11/13 05:48:09;;;;;;;3.58;3.10;;;2.20;99.90;;;;;;475071;250;27453;-65
2022/11/13 05:50:11;;;;;;;4.87;3.10;;;2.20;99.90;;;;;;475072;250;27499;-69
2022/11/13 05:52:13;;;;;;;3.40;3.10;;;2.10;99.90;;;;;;475113;250;27565;-64
2022/11/13 05:54:14;;;;;;;2.95;2.67;;;2.10;99.90;;;;;;475093;250;27424;-63
2022/11/13 05:56:15;;;;;;;3.50;3.00;;;2.10;99.90;;;;;;475078;250;27456;-65
2022/11/13 05:58:16;;;;;;;3.60;3.30;;;2.10;99.90;;;;;;475108;250;27979;-66
2022/11/13 06:00:18;;;;;;;3.97;3.30;;;2.10;99.90;;;;;;475063;250;27892;-65
2022/11/13 06:02:19;;;;;;;3.28;2.97;;;2.10;99.90;;;;;;475110;250;27451;-64
2022/11/13 06:04:20;;;;;;;4.32;2.97;;;2.10;99.90;;;;;;475118;250;27435;-63
2022/11/13 06:06:21;;;;;;;3.12;2.83;;;2.00;99.90;;;;;;475068;250;27424;-63
2022/11/13 06:08:23;;;;;;;3.35;3.03;;;2.00;99.90;;;;;;475096;250;27463;-66
2022/11/13 06:10:24;;;;;;;3.05;2.70;;;2.00;99.90;;;;;;475074;250;27488;-63
2022/11/13 06:12:25;;;;;;;2.95;2.62;;;2.00;99.90;;;;;;475086;250;27539;-64
2022/11/13 06:14:26;;;;;;;3.15;2.40;;;2.00;99.90;;;;;;475090;250;27551;-63
2022/11/13 06:16:28;;;;;;;3.20;2.90;;;1.90;99.90;;;;;;475102;250;27409;-63
2022/11/13 06:18:29;;;;;;;2.60;2.40;;;2.00;99.90;;;;;;475103;250;27519;-67
2022/11/13 06:20:30;;;;;;;4.05;3.00;;;2.00;99.90;;;;;;475073;250;27503;-66
2022/11/13 06:22:31;;;;;;;3.37;3.08;;;1.90;99.90;;;;;;475094;250;27463;-66
2022/11/13 06:24:33;;;;;;;3.55;3.25;;;2.00;99.90;;;;;;475101;250;28413;-65
2022/11/13 06:26:34;;;;;;;3.17;2.90;;;1.90;99.90;;;;;;475078;250;28034;-65
2022/11/13 06:28:35;;;;;;;3.03;2.83;;;1.80;99.90;;;;;;475094;250;28038;-66
2022/11/13 06:30:36;;;;;;;3.10;2.90;;;1.80;99.90;;;;;;475078;250;27887;-65
2022/11/13 06:32:38;;;;;;;3.50;3.20;;;1.80;99.90;;;;;;475094;250;27523;-66
2022/11/13 06:34:39;;;;;;;3.10;2.72;;;1.70;99.90;;;;;;475131;250;27449;-65
2022/11/13 06:36:40;;;;;;;3.55;3.28;;;1.80;99.90;;;;;;475076;250;27500;-65
2022/11/13 06:38:41;;;;;;;3.00;2.80;;;1.80;99.90;;;;;;475132;250;27451;-68
2022/11/13 06:40:43;;;;;;;3.22;2.85;;;1.80;99.90;;;;;;475082;250;27455;-65
2022/11/13 06:42:44;;;;;;;3.00;2.80;;;1.80;99.90;;;;;;475115;250;27459;-66
2022/11/13 06:44:45;;;;;;;3.25;3.03;;;1.80;99.90;;;;;;475090;250;27523;-65
2022/11/13 06:46:46;;;;;;;4.93;3.00;;;1.80;99.90;;;;;;475005;250;27433;-66
2022/11/13 06:48:48;;;;;;;3.33;3.03;;;1.80;99.90;;;;;;475120;250;27464;-67
2022/11/13 06:50:49;;;;;;;6.97;2.95;;;1.80;99.90;;;;;;475040;250;27483;-65
2022/11/13 06:52:50;;;;;;;3.62;3.33;;;1.80;99.90;;;;;;475079;250;27970;-65
2022/11/13 06:54:52;;;;;;;3.00;2.80;;;1.80;99.90;;;;;;475063;250;29059;-65
2022/11/13 06:56:53;;;;;;;2.90;2.70;;;1.70;99.90;;;;;;475080;250;27884;-65
2022/11/13 06:58:55;;;;;;;3.08;2.75;;;1.60;99.90;;;;;;475119;250;28033;-68
2022/11/13 07:00:55;;;;;;;2.85;2.65;;;1.50;99.90;;;;;;475036;250;27451;-65
2022/11/13 07:02:56;;;;;;;2.95;2.60;;;1.50;99.90;;;;;;475095;250;27541;-66
2022/11/13 07:04:58;;;;;;;2.97;2.78;;;1.50;99.90;;;;;;475058;250;27437;-65
2022/11/13 07:06:59;;;;;;;2.95;2.75;;;1.60;99.90;;;;;;475058;250;27555;-67
2022/11/13 07:09:00;;;;;;;2.70;2.50;;;1.60;99.90;;;;;;475103;250;27464;-69
2022/11/13 07:11:01;;;;;;;2.90;2.70;;;1.60;99.90;;;;;;475050;250;27435;-66
2022/11/13 07:13:03;;;;;;;2.65;2.45;;;1.70;99.90;;;;;;475099;250;27547;-66
2022/11/13 07:15:04;;;;;;;2.45;2.28;;;1.70;99.90;;;;;;475096;250;27476;-65
2022/11/13 07:17:05;;;;;;;3.30;3.00;;;1.80;99.90;;;;;;475070;250;27567;-66
2022/11/13 07:19:06;;;;;;;2.80;2.60;;;1.80;99.90;;;;;;475064;250;27560;-69
2022/11/13 07:21:08;;;;;;;3.42;3.15;;;1.80;99.90;;;;;;475096;250;27893;-66
2022/11/13 07:23:09;;;;;;;3.08;2.78;;;1.80;99.90;;;;;;475083;250;27947;-65
2022/11/13 07:25:10;;;;;;;2.90;2.70;;;1.80;99.90;;;;;;475105;250;27880;-66
2022/11/13 07:27:11;;;;;;;2.53;2.40;;;1.80;99.90;;;;;;475040;250;28035;-65
2022/11/13 07:29:14;;;;;;;2.78;2.58;;;1.80;99.90;;;;;;475107;249;27455;-69
2022/11/13 07:31:14;;;;;;;2.75;2.55;;;1.80;99.90;;;;;;475066;250;27416;-65
2022/11/13 07:33:15;;;;;;;2.95;2.65;;;1.80;99.90;;;;;;475075;250;27562;-67
2022/11/13 07:35:17;;;;;;;2.83;2.62;;;1.80;99.90;;;;;;475079;250;27511;-65
2022/11/13 07:37:18;;;;;;;2.35;2.25;;;1.80;99.90;;;;;;475052;250;27987;-66
2022/11/13 07:39:19;;;;;;;2.55;2.35;;;1.90;99.90;;;;;;475109;250;28125;-69
2022/11/13 07:41:20;;;;;;;2.78;2.58;;;1.90;99.90;;;;;;475112;250;27967;-65
2022/11/13 07:43:22;;;;;;;2.45;2.25;;;1.90;99.90;;;;;;475099;250;28014;-68
2022/11/13 07:45:23;;;;;;;3.08;2.87;;;1.80;99.90;;;;;;475105;250;27445;-65
2022/11/13 07:47:24;;;;;;;2.55;2.35;;;1.80;99.90;;;;;;475054;250;27459;-66
2022/11/13 07:49:25;;;;;;;2.97;2.78;;;1.80;99.90;;;;;;475084;250;27539;-65
2022/11/13 07:51:27;;;;;;;2.12;2.03;;;1.80;99.90;;;;;;475125;250;27420;-66
2022/11/13 07:53:28;;;;;;;3.00;2.80;;;1.80;99.90;;;;;;475002;250;27488;-67
2022/11/13 07:55:29;;;;;;;2.97;2.40;;;1.90;99.90;;;;;;475110;250;27528;-65
2022/11/13 07:57:30;;;;;;;2.97;2.78;;;1.90;99.90;;;;;;475040;250;27535;-65
2022/11/13 07:59:32;;;;;;;3.55;2.53;;;2.00;99.90;;;;;;475116;250;27859;-69
2022/11/13 08:01:33;;;;;;;2.80;2.60;;;2.10;99.90;;;;;;475104;250;27441;-65
2022/11/13 08:03:34;;;;;;;2.90;2.70;;;2.20;99.90;;;;;;475053;250;27464;-66
2022/11/13 08:05:35;;;;;;;3.08;2.80;;;2.20;99.90;;;;;;475050;250;27931;-65
2022/11/13 08:07:37;;;;;;;2.60;2.42;;;2.30;99.90;;;;;;475002;250;27933;-65
2022/11/13 08:09:38;;;;;;;3.47;2.65;;;2.30;99.90;;;;;;475077;250;28098;-66
2022/11/13 08:11:39;;;;;;;1.92;1.83;;;2.30;99.90;;;;;;475105;250;27988;-65
2022/11/13 08:13:40;;;;;;;2.60;2.40;;;2.40;99.90;;;;;;475024;250;27461;-67
2022/11/13 08:15:42;;;;;;;2.50;2.30;;;2.40;99.90;;;;;;475079;250;27412;-66
2022/11/13 08:17:43;;;;;;;2.42;2.28;;;2.50;99.90;;;;;;475009;250;27498;-66
2022/11/13 08:19:44;;;;;;;3.10;2.80;;;2.50;99.90;;;;;;475053;250;27441;-65
2022/11/13 08:21:45;;;;;;;3.00;2.75;;;2.50;99.90;;;;;;475095;250;27787;-66
2022/11/13 08:23:47;;;;;;;2.83;2.62;;;2.60;99.90;;;;;;475046;250;27457;-69
2022/11/13 08:25:48;;;;;;;2.67;2.47;;;2.60;99.90;;;;;;475071;250;27539;-65
2022/11/13 08:27:49;;;;;;;3.30;3.00;;;2.70;99.90;;;;;;475021;250;27566;-66
2022/11/13 08:29:50;;;;;;;3.30;3.00;;;2.80;99.90;;;;;;475092;250;27853;-68
2022/11/13 08:31:52;;;;;;;3.55;3.25;;;2.80;99.90;;;;;;475080;250;27420;-65
2022/11/13 08:33:53;;;;;;;3.25;2.97;;;2.90;99.90;;;;;;475010;250;27849;-67
2022/11/13 08:35:54;;;;;;;2.85;2.65;;;3.00;99.90;;;;;;475084;250;27894;-65
2022/11/13 08:37:55;;;;;;;3.80;3.30;;;3.10;99.90;;;;;;475004;250;28306;-66
2022/11/13 08:39:57;;;;;;;7.40;4.05;;;3.50;99.90;;;;;;475048;250;28715;-65
2022/11/13 08:41:58;;;;;;;5.87;4.82;;;3.90;99.90;;;;;;475065;250;27409;-65
2022/11/13 08:43:59;;;;;;;9.85;5.45;;;4.50;99.90;;;;;;475014;250;27448;-69
2022/11/13 08:46:00;;;;;;;7.78;5.85;;;4.90;99.90;;;;;;475071;250;27412;-65
2022/11/13 08:48:02;;;;;;;11.20;6.60;;;5.20;99.90;;;;;;475003;250;27486;-66
2022/11/13 08:50:03;;;;;;;9.77;7.00;;;5.40;99.90;;;;;;475063;250;27488;-65
2022/11/13 08:52:04;;;;;;;9.50;7.35;;;5.50;99.90;;;;;;475086;250;27428;-66
2022/11/13 08:54:05;;;;;;;10.57;7.12;;;5.60;99.90;;;;;;475058;250;27586;-69
2022/11/13 08:56:07;;;;;;;8.80;6.50;;;5.60;99.90;;;;;;475092;250;27420;-66
2022/11/13 08:58:08;;;;;;;8.23;6.57;;;5.70;99.90;;;;;;475090;250;27528;-66
2022/11/13 09:00:09;;;;;;;7.32;5.45;;;5.60;99.90;;;;;;475024;250;27892;-65
2022/11/13 09:02:11;;;;;;;8.98;6.10;;;5.40;99.90;;;;;;475076;250;28012;-66
2022/11/13 09:04:12;;;;;;;6.57;5.18;;;5.40;99.90;;;;;;475048;250;28169;-68
2022/11/13 09:06:13;;;;;;;6.72;5.35;;;5.60;99.90;;;;;;475101;250;28133;-66
2022/11/13 09:08:14;;;;;;;6.43;5.70;;;5.70;99.90;;;;;;475074;250;27449;-66
2022/11/13 09:10:15;;;;;;;7.40;5.85;;;5.80;99.90;;;;;;475040;250;27538;-65
2022/11/13 09:12:17;;;;;;;9.05;6.05;;;6.10;99.90;;;;;;475088;250;27434;-66
2022/11/13 09:14:18;;;;;;;7.32;5.68;;;6.30;99.90;;;;;;475049;250;27487;-70
2022/11/13 09:16:19;;;;;;;7.93;6.45;;;6.50;99.90;;;;;;475087;250;27499;-65
2022/11/13 09:18:20;;;;;;;9.65;6.60;;;6.50;99.90;;;;;;475062;250;27464;-66
2022/11/13 09:20:22;;;;;;;7.50;5.72;;;6.60;99.90;;;;;;475034;250;27419;-65
2022/11/13 09:22:23;;;;;;;7.70;5.55;;;6.70;99.90;;;;;;475041;250;27554;-66
2022/11/13 09:24:24;;;;;;;10.00;6.80;;;6.80;99.90;;;;;;475053;250;27958;-70
2022/11/13 09:26:25;;;;;;;6.10;5.40;;;6.80;99.90;;;;;;475089;250;27962;-66
2022/11/13 09:28:27;;;;;;;6.18;5.25;;;6.80;99.90;;;;;;473496;250;36318;-67
2022/11/13 09:30:28;;;;;;;6.40;5.18;;;6.90;99.90;;;;;;475051;250;27493;-66
2022/11/13 09:32:29;;;;;;;9.27;5.70;;;7.00;99.90;;;;;;475035;250;27436;-66
2022/11/13 09:34:32;;;;;;;6.37;5.40;;;7.10;99.90;;;;;;475063;250;27523;-69
2022/11/13 09:36:32;;;;;;;6.53;5.90;;;7.00;99.90;;;;;;474977;250;27467;-66
2022/11/13 09:38:33;;;;;;;6.28;5.30;;;7.20;99.90;;;;;;475086;250;27456;-67
2022/11/13 09:40:34;;;;;;;6.15;5.50;;;7.30;99.90;;;;;;475041;250;27499;-65
2022/11/13 09:42:35;;;;;;;6.37;5.30;;;7.30;99.90;;;;;;475084;250;27968;-65
2022/11/13 09:44:38;;;;;;;6.60;5.12;;;7.40;99.90;;;;;;475065;250;27934;-69
2022/11/13 09:46:38;;;;;;;5.60;4.62;;;7.40;99.90;;;;;;475043;250;27428;-65
2022/11/13 09:48:39;;;;;;;7.00;5.12;;;7.60;99.90;;;;;;475085;250;27462;-66
2022/11/13 09:50:40;;;;;;;6.35;5.12;;;7.60;99.90;;;;;;475028;250;27400;-65
2022/11/13 09:52:42;;;;;;;9.02;5.43;;;7.60;99.90;;;;;;475087;250;27456;-65
2022/11/13 09:54:43;;;;;;;7.20;4.62;;;7.80;99.90;;;;;;475060;250;27465;-69
2022/11/13 09:56:45;;;;;;;7.37;5.32;;;7.90;99.90;;;;;;475116;250;27432;-65
2022/11/13 09:58:46;;;;;;;5.50;4.75;;;7.90;99.90;;;;;;475058;250;28046;-66
2022/11/13 10:00:47;;;;;;;5.93;4.53;;;8.00;99.90;;;;;;475042;250;27801;-66
2022/11/13 10:02:48;;;;;;;5.60;4.65;;;8.00;99.90;;;;;;475120;250;27904;-65
2022/11/13 10:04:49;;;;;;;6.03;4.50;;;8.10;99.90;;;;;;475040;250;27966;-67
2022/11/13 10:06:51;;;;;;;8.63;5.55;;;8.20;99.90;;;;;;474964;250;27526;-66
2022/11/13 10:08:52;;;;;;;7.00;4.95;;;8.20;99.90;;;;;;474965;250;27475;-65
2022/11/13 10:10:53;;;;;;;5.95;4.90;;;8.30;99.90;;;;;;474957;250;27523;-65
2022/11/13 10:12:54;;;;;;;7.10;4.97;;;8.30;99.90;;;;;;475086;250;27425;-65
2022/11/13 10:14:56;;;;;;;6.70;4.10;;;8.40;99.90;;;;;;475093;250;27492;-67
2022/11/13 10:16:57;;;;;;;7.50;4.43;;;8.40;99.90;;;;;;475045;249;28889;-65
2022/11/13 10:18:58;;;;;;;5.90;4.57;;;8.40;99.90;;;;;;475124;250;27944;-65
2022/11/13 10:20:59;;;;;;;5.60;4.50;;;8.50;99.90;;;;;;475099;250;29293;-69
2022/11/13 10:23:01;;;;;;;4.87;4.37;;;8.60;99.90;;;;;;475121;250;29229;-65
2022/11/13 10:25:02;;;;;;;5.83;4.20;;;8.60;99.90;;;;;;475130;250;28278;-67
2022/11/13 10:27:03;;;;;;;7.53;4.70;;;8.70;99.90;;;;;;475080;250;28038;-66
2022/11/13 10:29:04;;;;;;;5.05;4.00;;;8.70;99.90;;;;;;475099;250;27919;-65
2022/11/13 10:31:06;;;;;;;4.75;4.20;;;8.60;99.90;;;;;;475108;250;27892;-69
2022/11/13 10:33:07;;;;;;;7.25;4.60;;;8.50;99.90;;;;;;475140;250;27451;-66
2022/11/13 10:35:08;;;;;;;4.37;3.97;;;8.70;99.90;;;;;;475138;250;27462;-66
2022/11/13 10:37:09;;;;;;;6.40;4.47;;;8.70;99.90;;;;;;475051;250;28249;-65
2022/11/13 10:39:11;;;;;;;5.13;4.33;;;8.70;99.90;;;;;;475129;250;28497;-66
2022/11/13 10:41:12;;;;;;;4.93;4.13;;;8.80;99.90;;;;;;475109;250;28418;-70